createdAt,value
2022-11-23T07:27:17.905Z,9.79
2022-11-23T07:28:17.866Z,9.88
2022-11-23T07:29:17.841Z,9.70
2022-11-23T07:30:17.836Z,9.70
2022-11-23T07:31:17.814Z,9.73
2022-11-23T07:32:17.816Z,9.70
2022-11-23T07:33:17.811Z,9.63
2022-11-23T07:34:17.791Z,9.68
2022-11-23T07:35:17.767Z,9.76
2022-11-23T07:36:17.763Z,9.73
2022-11-23T07:37:17.747Z,9.73
2022-11-23T07:38:17.764Z,9.71
2022-11-23T07:39:17.730Z,9.81
2022-11-23T07:40:17.721Z,9.83
2022-11-23T07:41:17.713Z,9.83
2022-11-23T07:42:32.742Z,9.78
2022-11-23T07:43:18.726Z,9.88
2022-11-23T07:44:17.681Z,9.86
2022-11-23T07:45:17.678Z,9.85
2022-11-23T07:46:17.657Z,9.85
2022-11-23T07:47:17.642Z,9.83
2022-11-23T07:48:17.632Z,9.82
2022-11-23T07:49:17.629Z,9.71
2022-11-23T07:50:17.611Z,9.79
2022-11-23T07:51:17.597Z,9.70
2022-11-23T07:52:17.589Z,9.68
2022-11-23T07:53:17.673Z,9.68
2022-11-23T07:54:23.303Z,9.63
2022-11-23T07:55:18.553Z,9.57
2022-11-23T07:56:17.543Z,9.57
2022-11-23T07:57:17.530Z,9.31
2022-11-23T07:58:17.514Z,9.50
2022-11-23T07:59:17.522Z,9.43
2022-11-23T08:00:17.523Z,9.40
2022-11-23T08:01:17.495Z,9.43
2022-11-23T08:02:17.515Z,9.31
2022-11-23T08:03:27.698Z,9.28
2022-11-23T08:04:18.474Z,9.32
2022-11-23T08:05:17.450Z,9.49
2022-11-23T08:06:17.461Z,9.25
2022-11-23T08:07:17.459Z,9.31
2022-11-23T08:08:17.414Z,9.24
2022-11-23T08:09:17.401Z,9.25
2022-11-23T08:10:17.393Z,9.23
2022-11-23T08:11:17.392Z,9.27
2022-11-23T08:12:17.365Z,9.27
2022-11-23T08:13:17.354Z,9.30
2022-11-23T08:14:17.367Z,9.34
2022-11-23T08:15:18.019Z,9.30
2022-11-23T08:16:17.339Z,9.28
2022-11-23T08:17:17.296Z,9.39
2022-11-23T08:18:17.349Z,9.31
2022-11-23T08:19:17.285Z,9.42
2022-11-23T08:20:17.267Z,9.43
2022-11-23T08:21:17.263Z,9.43
2022-11-23T08:22:17.258Z,9.46
2022-11-23T08:23:17.246Z,9.45
2022-11-23T08:24:17.232Z,9.50
2022-11-23T08:25:17.203Z,9.40
2022-11-23T08:26:17.211Z,9.45
2022-11-23T08:27:17.214Z,9.52
2022-11-23T08:28:17.173Z,9.49
2022-11-23T08:29:17.246Z,9.46
2022-11-23T08:30:17.166Z,9.50
2022-11-23T08:31:17.156Z,9.49
2022-11-23T08:32:17.153Z,9.61
2022-11-23T08:33:17.113Z,9.66
2022-11-23T08:34:17.120Z,9.53
2022-11-23T08:35:17.103Z,9.58
2022-11-23T08:36:17.083Z,9.58
2022-11-23T08:37:17.067Z,9.60
2022-11-23T08:38:17.074Z,9.48
2022-11-23T08:39:17.045Z,9.63
2022-11-23T08:40:22.108Z,9.66
2022-11-23T08:41:18.032Z,9.81
2022-11-23T08:42:17.028Z,9.71
2022-11-23T08:43:17.035Z,9.68
2022-11-23T08:44:16.994Z,9.76
2022-11-23T08:45:16.982Z,9.82
2022-11-23T08:46:16.975Z,9.78
2022-11-23T08:47:16.993Z,9.64
2022-11-23T08:48:17.080Z,9.66
2022-11-23T08:49:16.934Z,9.73
2022-11-23T08:50:16.925Z,9.81
2022-11-23T08:51:16.908Z,9.79
2022-11-23T08:52:16.916Z,9.73
2022-11-23T08:53:16.894Z,9.78
2022-11-23T08:54:16.904Z,9.85
2022-11-23T08:55:16.868Z,9.83
2022-11-23T08:56:16.881Z,9.76
2022-11-23T08:57:16.845Z,9.85
2022-11-23T08:58:16.849Z,9.81
2022-11-23T08:59:16.852Z,9.86
2022-11-23T09:00:16.824Z,9.89
2022-11-23T09:01:16.910Z,9.88
2022-11-23T09:02:16.806Z,9.91
2022-11-23T09:03:16.792Z,9.96
2022-11-23T09:04:20.620Z,9.96
2022-11-23T09:05:16.768Z,9.89
2022-11-23T09:06:16.742Z,9.94
2022-11-23T09:07:16.836Z,10.01
2022-11-23T09:08:16.718Z,10.03
2022-11-23T09:09:16.716Z,10.06
2022-11-23T09:10:18.966Z,9.99
2022-11-23T09:11:16.696Z,9.94
2022-11-23T09:12:16.672Z,10.00
2022-11-23T09:13:16.665Z,10.04
2022-11-23T09:14:16.650Z,10.10
2022-11-23T09:15:16.656Z,10.12
2022-11-23T09:16:16.632Z,10.10
2022-11-23T09:17:16.614Z,10.17
2022-11-23T09:18:16.618Z,10.12
2022-11-23T09:19:16.611Z,10.14
2022-11-23T09:20:16.601Z,10.17
2022-11-23T09:21:16.586Z,10.14
2022-11-23T09:22:16.575Z,10.24
2022-11-23T09:23:16.558Z,10.25
2022-11-23T09:24:16.606Z,10.28
2022-11-23T09:25:16.546Z,10.26
2022-11-23T09:26:16.517Z,10.28
2022-11-23T09:27:16.498Z,10.30
2022-11-23T09:28:16.493Z,10.28
2022-11-23T09:29:16.475Z,10.21
2022-11-23T09:30:16.467Z,10.21
2022-11-23T09:31:16.466Z,10.22
2022-11-23T09:32:16.468Z,10.24
2022-11-23T09:33:16.443Z,10.36
2022-11-23T09:34:16.424Z,10.25
2022-11-23T09:35:16.476Z,10.21
2022-11-23T09:36:16.417Z,10.33
2022-11-23T09:37:16.389Z,10.34
2022-11-23T09:38:16.382Z,10.32
2022-11-23T09:39:16.364Z,10.39
2022-11-23T09:40:16.359Z,10.39
2022-11-23T09:41:16.356Z,10.36
2022-11-23T09:42:16.347Z,10.43
2022-11-23T09:43:16.330Z,10.39
2022-11-23T09:44:17.043Z,10.37
2022-11-23T09:45:16.294Z,10.37
2022-11-23T09:46:16.300Z,10.34
2022-11-23T09:47:16.305Z,10.39
2022-11-23T09:48:16.276Z,10.39
2022-11-23T09:49:16.254Z,10.46
2022-11-23T09:50:16.239Z,10.39
2022-11-23T09:51:16.274Z,10.32
2022-11-23T09:52:16.300Z,10.37
2022-11-23T09:53:16.227Z,10.37
2022-11-23T09:54:16.195Z,10.32
2022-11-23T09:55:16.191Z,10.30
2022-11-23T09:56:16.184Z,10.33
2022-11-23T09:57:16.169Z,10.33
2022-11-23T09:58:16.161Z,10.34
2022-11-23T09:59:16.146Z,10.28
2022-11-23T10:00:16.125Z,10.39
2022-11-23T10:01:16.205Z,10.32
2022-11-23T10:02:16.114Z,10.32
2022-11-23T10:03:16.114Z,10.32
2022-11-23T10:04:16.082Z,10.39
2022-11-23T10:05:16.077Z,10.32
2022-11-23T10:06:16.071Z,10.39
2022-11-23T10:07:16.106Z,10.44
2022-11-23T10:08:16.063Z,10.39
2022-11-23T10:09:16.051Z,10.36
2022-11-23T10:10:16.027Z,10.26
2022-11-23T10:11:16.011Z,10.46
2022-11-23T10:12:15.990Z,10.46
2022-11-23T10:13:15.974Z,10.52
2022-11-23T10:14:15.978Z,10.44
2022-11-23T10:15:15.963Z,10.44
2022-11-23T10:16:15.960Z,10.52
2022-11-23T10:17:15.941Z,10.43
2022-11-23T10:18:16.536Z,10.47
2022-11-23T10:19:15.930Z,10.44
2022-11-23T10:20:15.910Z,10.44
2022-11-23T10:21:15.899Z,10.40
2022-11-23T10:22:15.875Z,10.51
2022-11-23T10:23:15.893Z,10.52
2022-11-23T10:24:15.879Z,10.43
2022-11-23T10:25:15.852Z,10.55
2022-11-23T10:26:15.841Z,10.46
2022-11-23T10:27:15.817Z,10.42
2022-11-23T10:28:15.810Z,10.44
2022-11-23T10:29:15.824Z,10.44
2022-11-23T10:30:15.800Z,10.46
2022-11-23T10:31:15.849Z,10.53
2022-11-23T10:32:15.807Z,10.51
2022-11-23T10:33:15.749Z,10.56
2022-11-23T10:34:15.802Z,10.60
2022-11-23T10:35:15.728Z,10.68
2022-11-23T10:36:15.730Z,10.56
2022-11-23T10:37:15.700Z,10.53
2022-11-23T10:38:19.050Z,10.56
2022-11-23T10:39:15.719Z,10.44
2022-11-23T10:40:15.681Z,10.56
2022-11-23T10:41:15.695Z,10.59
2022-11-23T10:42:15.663Z,10.59
2022-11-23T10:43:15.644Z,10.68
2022-11-23T10:44:15.645Z,10.60
2022-11-23T10:45:15.632Z,10.73
2022-11-23T10:46:15.615Z,10.68
2022-11-23T10:47:15.587Z,11.01
2022-11-23T10:48:15.580Z,11.14
2022-11-23T10:49:15.565Z,11.29
2022-11-23T10:50:15.583Z,11.41
2022-11-23T10:51:15.554Z,11.54
2022-11-23T10:52:15.571Z,11.67
2022-11-23T10:53:15.517Z,11.57
2022-11-23T10:54:15.596Z,11.65
2022-11-23T10:55:15.547Z,11.80
2022-11-23T10:56:15.502Z,11.85
2022-11-23T10:57:15.473Z,11.97
2022-11-23T10:58:15.463Z,12.02
2022-11-23T10:59:15.457Z,12.01
2022-11-23T11:00:15.468Z,12.16
2022-11-23T11:01:15.567Z,12.27
2022-11-23T11:02:15.436Z,12.45
2022-11-23T11:03:15.417Z,12.67
2022-11-23T11:04:15.412Z,12.82
2022-11-23T11:05:15.412Z,12.84
2022-11-23T11:06:15.393Z,12.96
2022-11-23T11:07:15.548Z,12.87
2022-11-23T11:08:15.350Z,12.79
2022-11-23T11:09:15.351Z,12.81
2022-11-23T11:10:15.483Z,12.82
2022-11-23T11:11:15.362Z,12.78
2022-11-23T11:12:15.314Z,12.82
2022-11-23T11:13:15.296Z,12.96
2022-11-23T11:14:15.291Z,13.15
2022-11-23T11:15:15.303Z,13.21
2022-11-23T11:16:15.257Z,13.22
2022-11-23T11:17:15.262Z,13.20
2022-11-23T11:18:15.264Z,13.15
2022-11-23T11:19:15.245Z,13.06
2022-11-23T11:20:15.257Z,13.24
2022-11-23T11:21:15.205Z,13.24
2022-11-23T11:22:15.203Z,13.14
2022-11-23T11:23:15.214Z,13.09
2022-11-23T11:24:15.179Z,13.22
2022-11-23T11:25:15.184Z,13.24
2022-11-23T11:26:15.157Z,13.36
2022-11-23T11:27:15.159Z,13.25
2022-11-23T11:28:15.134Z,13.15
2022-11-23T11:29:15.128Z,13.03
2022-11-23T11:30:15.111Z,12.92
2022-11-23T11:31:15.105Z,12.77
2022-11-23T11:32:15.072Z,12.56
2022-11-23T11:33:15.081Z,12.54
2022-11-23T11:34:15.055Z,12.37
2022-11-23T11:35:20.572Z,12.27
2022-11-23T11:36:16.029Z,12.09
2022-11-23T11:37:15.036Z,12.05
2022-11-23T11:38:15.018Z,12.01
2022-11-23T11:39:18.959Z,12.05
2022-11-23T11:40:15.050Z,11.97
2022-11-23T11:41:14.992Z,11.99
2022-11-23T11:42:14.978Z,11.83
2022-11-23T11:43:14.988Z,11.90
2022-11-23T11:44:14.951Z,11.93
2022-11-23T11:45:14.929Z,11.96
2022-11-23T11:46:28.996Z,11.96
2022-11-23T11:47:15.919Z,12.04
2022-11-23T11:48:14.891Z,11.89
2022-11-23T11:49:14.889Z,11.86
2022-11-23T11:50:14.887Z,11.75
2022-11-23T11:51:14.909Z,11.71
2022-11-23T11:52:14.860Z,11.70
2022-11-23T11:53:14.864Z,11.75
2022-11-23T11:54:14.840Z,11.70
2022-11-23T11:55:14.858Z,11.68
2022-11-23T11:56:14.812Z,11.68
2022-11-23T11:57:14.806Z,11.65
2022-11-23T11:58:14.823Z,11.62
2022-11-23T11:59:14.857Z,11.64
2022-11-23T12:00:14.767Z,11.57
2022-11-23T12:01:14.815Z,11.65
2022-11-23T12:02:14.762Z,11.54
2022-11-23T12:03:14.752Z,11.52
2022-11-23T12:04:14.708Z,11.47
2022-11-23T12:05:14.722Z,11.41
2022-11-23T12:06:14.710Z,11.35
2022-11-23T12:07:14.721Z,11.34
2022-11-23T12:08:14.676Z,11.49
2022-11-23T12:09:14.664Z,11.39
2022-11-23T12:10:14.654Z,11.49
2022-11-23T12:11:14.654Z,11.34
2022-11-23T12:12:14.617Z,11.47
2022-11-23T12:13:14.618Z,11.50
2022-11-23T12:14:14.617Z,11.39
2022-11-23T12:15:40.975Z,11.56
2022-11-23T12:16:15.587Z,11.53
2022-11-23T12:17:32.323Z,11.62
2022-11-23T12:18:15.547Z,11.65
2022-11-23T12:19:14.555Z,11.70
2022-11-23T12:20:14.544Z,11.82
2022-11-23T12:21:14.578Z,11.78
2022-11-23T12:22:14.615Z,11.71
2022-11-23T12:23:14.498Z,11.77
2022-11-23T12:24:14.484Z,11.87
2022-11-23T12:25:14.502Z,12.05
2022-11-23T12:26:14.475Z,12.24
2022-11-23T12:27:14.489Z,12.49
2022-11-23T12:28:14.455Z,12.46
2022-11-23T12:29:14.431Z,12.37
2022-11-23T12:30:14.433Z,12.42
2022-11-23T12:31:14.455Z,12.19
2022-11-23T12:32:14.420Z,12.05
2022-11-23T12:33:14.398Z,12.01
2022-11-23T12:34:14.370Z,11.83
2022-11-23T12:35:14.371Z,11.71
2022-11-23T12:36:15.791Z,11.61
2022-11-23T12:37:14.388Z,11.46
2022-11-23T12:38:14.341Z,11.46
2022-11-23T12:39:14.316Z,11.49
2022-11-23T12:40:14.316Z,11.44
2022-11-23T12:41:14.321Z,11.50
2022-11-23T12:42:14.277Z,11.53
2022-11-23T12:43:14.303Z,11.43
2022-11-23T12:44:14.257Z,11.50
2022-11-23T12:45:14.263Z,11.46
2022-11-23T12:46:14.246Z,11.41
2022-11-23T12:47:14.259Z,11.53
2022-11-23T12:48:14.251Z,11.52
2022-11-23T12:49:14.236Z,11.64
2022-11-23T12:50:14.203Z,11.65
2022-11-23T12:51:14.181Z,11.67
2022-11-23T12:52:14.165Z,11.62
2022-11-23T12:53:14.385Z,11.57
2022-11-23T12:54:14.253Z,11.67
2022-11-23T12:55:19.434Z,11.71
2022-11-23T12:56:15.126Z,11.78
2022-11-23T12:57:14.162Z,12.11
2022-11-23T12:58:14.110Z,12.42
2022-11-23T12:59:14.118Z,12.66
2022-11-23T13:00:14.089Z,12.77
2022-11-23T13:01:14.150Z,12.97
2022-11-23T13:02:14.109Z,13.07
2022-11-23T13:03:14.077Z,13.12
2022-11-23T13:04:14.146Z,13.06
2022-11-23T13:05:14.037Z,13.12
2022-11-23T13:06:14.019Z,13.29
2022-11-23T13:07:28.791Z,13.51
2022-11-23T13:08:15.030Z,13.49
2022-11-23T13:09:13.991Z,13.58
2022-11-23T13:10:13.976Z,13.51
2022-11-23T13:11:13.966Z,13.49
2022-11-23T13:12:13.950Z,13.69
2022-11-23T13:13:16.027Z,13.76
2022-11-23T13:14:13.920Z,13.94
2022-11-23T13:15:13.932Z,13.88
2022-11-23T13:16:14.051Z,13.83
2022-11-23T13:17:13.990Z,13.89
2022-11-23T13:18:13.869Z,13.76
2022-11-23T13:19:13.896Z,13.77
2022-11-23T13:20:13.878Z,13.62
2022-11-23T13:21:13.850Z,13.52
2022-11-23T13:22:13.837Z,13.43
2022-11-23T13:23:13.834Z,13.22
2022-11-23T13:24:13.799Z,13.22
2022-11-23T13:25:13.810Z,13.12
2022-11-23T13:26:13.792Z,13.14
2022-11-23T13:27:13.775Z,12.96
2022-11-23T13:28:13.762Z,12.82
2022-11-23T13:29:13.748Z,12.77
2022-11-23T13:30:13.730Z,12.45
2022-11-23T13:31:15.354Z,12.31
2022-11-23T13:32:13.786Z,12.30
2022-11-23T13:33:13.732Z,12.23
2022-11-23T13:34:13.698Z,12.23
2022-11-23T13:35:13.701Z,12.16
2022-11-23T13:36:18.462Z,12.15
2022-11-23T13:37:14.826Z,12.04
2022-11-23T13:38:13.659Z,12.01
2022-11-23T13:39:13.644Z,11.99
2022-11-23T13:40:13.631Z,12.02
2022-11-23T13:41:13.642Z,11.96
2022-11-23T13:42:13.614Z,12.04
2022-11-23T13:43:13.589Z,12.06
2022-11-23T13:44:13.573Z,12.13
2022-11-23T13:45:13.576Z,12.21
2022-11-23T13:46:13.660Z,12.30
2022-11-23T13:47:13.546Z,12.39
2022-11-23T13:48:34.121Z,12.41
2022-11-23T13:49:14.522Z,12.45
2022-11-23T13:50:13.531Z,12.57
2022-11-23T13:51:13.522Z,12.57
2022-11-23T13:52:13.495Z,12.57
2022-11-23T13:53:13.478Z,12.42
2022-11-23T13:54:13.521Z,12.49
2022-11-23T13:55:13.486Z,12.52
2022-11-23T13:56:13.478Z,12.46
2022-11-23T13:57:13.460Z,12.37
2022-11-23T13:58:13.437Z,12.30
2022-11-23T13:59:13.427Z,12.21
2022-11-23T14:00:13.430Z,12.21
2022-11-23T14:01:13.425Z,12.09
2022-11-23T14:02:13.437Z,11.93
2022-11-23T14:03:13.361Z,11.83
2022-11-23T14:04:13.356Z,11.89
2022-11-23T14:05:13.351Z,11.83
2022-11-23T14:06:13.358Z,11.77
2022-11-23T14:07:13.503Z,11.83
2022-11-23T14:08:13.312Z,11.72
2022-11-23T14:09:13.304Z,11.68
2022-11-23T14:10:13.295Z,11.56
2022-11-23T14:11:13.297Z,11.52
2022-11-23T14:12:13.272Z,11.52
2022-11-23T14:13:13.259Z,11.41
2022-11-23T14:14:13.248Z,11.32
2022-11-23T14:15:13.235Z,11.38
2022-11-23T14:16:13.279Z,11.39
2022-11-23T14:17:13.213Z,11.31
2022-11-23T14:18:13.200Z,11.28
2022-11-23T14:19:13.180Z,11.20
2022-11-23T14:20:13.188Z,11.25
2022-11-23T14:21:13.155Z,11.28
2022-11-23T14:22:13.139Z,11.07
2022-11-23T14:23:13.171Z,11.14
2022-11-23T14:24:15.870Z,11.09
2022-11-23T14:25:13.142Z,11.09
2022-11-23T14:26:13.094Z,10.94
2022-11-23T14:27:45.221Z,10.98
2022-11-23T14:28:14.071Z,11.01
2022-11-23T14:29:13.080Z,10.96
2022-11-23T14:30:13.053Z,11.03
2022-11-23T14:31:13.113Z,11.02
2022-11-23T14:32:13.158Z,10.99
2022-11-23T14:33:13.020Z,10.98
2022-11-23T14:34:13.015Z,10.89
2022-11-23T14:35:13.009Z,10.95
2022-11-23T14:36:13.015Z,10.89
2022-11-23T14:37:12.989Z,10.80
2022-11-23T14:38:12.980Z,10.86
2022-11-23T14:39:13.012Z,10.81
2022-11-23T14:40:12.951Z,10.77
2022-11-23T14:41:13.001Z,10.76
2022-11-23T14:42:12.947Z,10.70
2022-11-23T14:43:12.937Z,10.70
2022-11-23T14:44:12.903Z,10.76
2022-11-23T14:45:12.916Z,10.80
2022-11-23T14:46:12.957Z,10.83
2022-11-23T14:47:12.970Z,10.88
2022-11-23T14:48:12.857Z,10.77
2022-11-23T14:49:12.854Z,10.86
2022-11-23T14:50:12.858Z,10.78
2022-11-23T14:51:12.844Z,10.86
2022-11-23T14:52:12.831Z,10.78
2022-11-23T14:53:12.796Z,10.86
2022-11-23T14:54:12.793Z,10.83
2022-11-23T14:55:12.827Z,10.92
2022-11-23T14:56:12.764Z,10.81
2022-11-23T14:57:13.611Z,10.81
2022-11-23T14:58:12.759Z,10.88
2022-11-23T14:59:12.799Z,10.78
2022-11-23T15:00:12.808Z,10.84
2022-11-23T15:01:12.702Z,10.70
2022-11-23T15:02:12.697Z,10.88
2022-11-23T15:03:42.559Z,10.76
2022-11-23T15:04:13.782Z,10.84
2022-11-23T15:05:12.780Z,10.86
2022-11-23T15:06:12.672Z,10.78
2022-11-23T15:07:12.716Z,10.77
2022-11-23T15:08:12.636Z,10.83
2022-11-23T15:09:12.610Z,10.74
2022-11-23T15:10:12.613Z,10.71
2022-11-23T15:11:12.609Z,10.78
2022-11-23T15:12:12.600Z,10.74
2022-11-23T15:13:14.801Z,10.83
2022-11-23T15:14:12.561Z,10.76
2022-11-23T15:15:12.541Z,10.71
2022-11-23T15:16:12.620Z,10.76
2022-11-23T15:17:12.533Z,10.71
2022-11-23T15:18:12.514Z,10.76
2022-11-23T15:19:12.499Z,10.68
2022-11-23T15:20:12.494Z,10.73
2022-11-23T15:21:12.478Z,10.70
2022-11-23T15:22:12.456Z,10.73
2022-11-23T15:23:12.473Z,10.68
2022-11-23T15:24:12.447Z,10.60
2022-11-23T15:25:12.428Z,10.71
2022-11-23T15:26:28.590Z,10.68
2022-11-23T15:27:13.445Z,10.52
2022-11-23T15:28:12.428Z,10.56
2022-11-23T15:29:12.378Z,10.51
2022-11-23T15:30:12.372Z,10.53
2022-11-23T15:31:17.408Z,10.63
2022-11-23T15:32:30.097Z,10.53
2022-11-23T15:33:13.395Z,10.52
2022-11-23T15:34:12.326Z,10.58
2022-11-23T15:35:12.314Z,10.52
2022-11-23T15:36:12.317Z,10.46
2022-11-23T15:37:12.310Z,10.34
2022-11-23T15:38:12.308Z,10.33
2022-11-23T15:39:12.263Z,10.28
2022-11-23T15:40:12.258Z,10.15
2022-11-23T15:41:12.241Z,10.18
2022-11-23T15:42:12.233Z,10.18
2022-11-23T15:43:12.266Z,10.14
2022-11-23T15:44:12.232Z,10.15
2022-11-23T15:45:12.219Z,10.07
2022-11-23T15:46:12.314Z,9.99
2022-11-23T15:47:12.170Z,10.10
2022-11-23T15:48:12.168Z,9.99
2022-11-23T15:49:12.164Z,10.03
2022-11-23T15:50:12.157Z,9.85
2022-11-23T15:51:12.124Z,9.81
2022-11-23T15:52:12.118Z,9.97
2022-11-23T15:53:12.105Z,9.81
2022-11-23T15:54:12.098Z,9.88
2022-11-23T15:55:12.110Z,9.81
2022-11-23T15:56:12.081Z,9.70
2022-11-23T15:57:12.054Z,9.75
2022-11-23T15:58:12.063Z,9.71
2022-11-23T15:59:12.057Z,9.60
2022-11-23T16:00:12.043Z,9.63
2022-11-23T16:01:12.169Z,9.61
2022-11-23T16:02:12.032Z,9.58
2022-11-23T16:03:11.993Z,9.64
2022-11-23T16:04:12.003Z,9.49
2022-11-23T16:05:11.992Z,9.46
2022-11-23T16:06:11.972Z,9.46
2022-11-23T16:07:11.990Z,9.48
2022-11-23T16:08:11.934Z,9.39
2022-11-23T16:09:35.186Z,9.28
2022-11-23T16:10:12.940Z,9.21
2022-11-23T16:11:11.912Z,9.28
2022-11-23T16:12:11.910Z,9.25
2022-11-23T16:13:11.884Z,9.12
2022-11-23T16:14:11.867Z,9.24
2022-11-23T16:15:11.875Z,9.18
2022-11-23T16:16:12.075Z,9.21
2022-11-23T16:17:11.898Z,9.13
2022-11-23T16:18:11.838Z,9.16
2022-11-23T16:19:11.817Z,9.09
2022-11-23T16:20:11.813Z,9.18
2022-11-23T16:21:11.808Z,9.25
2022-11-23T16:22:11.777Z,9.10
2022-11-23T16:23:11.788Z,9.32
2022-11-23T16:24:11.753Z,9.21
2022-11-23T16:25:11.749Z,9.10
2022-11-23T16:26:11.744Z,9.15
2022-11-23T16:27:11.712Z,9.18
2022-11-23T16:28:11.706Z,9.20
2022-11-23T16:29:11.695Z,9.10
2022-11-23T16:30:11.702Z,9.05
2022-11-23T16:31:11.782Z,9.12
2022-11-23T16:32:11.662Z,9.23
2022-11-23T16:33:11.663Z,9.21
2022-11-23T16:34:11.644Z,9.06
2022-11-23T16:35:11.625Z,9.13
2022-11-23T16:36:11.635Z,9.04
2022-11-23T16:37:11.615Z,9.06
2022-11-23T16:38:11.616Z,8.93
2022-11-23T16:39:11.590Z,8.99
2022-11-23T16:40:11.575Z,8.99
2022-11-23T16:41:11.572Z,9.02
2022-11-23T16:42:11.572Z,9.01
2022-11-23T16:43:11.545Z,9.10
2022-11-23T16:44:11.524Z,9.04
2022-11-23T16:45:11.523Z,8.94
2022-11-23T16:46:11.577Z,9.02
2022-11-23T16:47:11.522Z,8.90
2022-11-23T16:48:11.494Z,8.94
2022-11-23T16:49:11.475Z,8.88
2022-11-23T16:50:11.466Z,8.97
2022-11-23T16:51:11.462Z,8.90
2022-11-23T16:52:11.431Z,8.91
2022-11-23T16:53:11.429Z,8.91
2022-11-23T16:54:14.216Z,8.86
2022-11-23T16:55:11.405Z,8.91
2022-11-23T16:56:11.388Z,8.87
2022-11-23T16:57:11.373Z,8.88
2022-11-23T16:58:11.391Z,8.84
2022-11-23T16:59:11.347Z,8.78
2022-11-23T17:00:11.340Z,8.79
2022-11-23T17:01:11.333Z,8.86
2022-11-23T17:02:11.405Z,8.66
2022-11-23T17:03:11.364Z,8.66
2022-11-23T17:04:11.362Z,8.58
2022-11-23T17:05:11.284Z,8.62
2022-11-23T17:06:11.272Z,8.60
2022-11-23T17:07:11.334Z,8.60
2022-11-23T17:08:11.255Z,8.51
2022-11-23T17:09:11.250Z,8.50
2022-11-23T17:10:11.245Z,8.60
2022-11-23T17:11:11.265Z,8.60
2022-11-23T17:12:11.217Z,8.62
2022-11-23T17:13:11.201Z,8.60
2022-11-23T17:14:16.325Z,8.57
2022-11-23T17:15:12.186Z,8.55
2022-11-23T17:16:11.213Z,8.63
2022-11-23T17:17:11.243Z,8.58
2022-11-23T17:18:11.171Z,8.51
2022-11-23T17:19:11.171Z,8.55
2022-11-23T17:20:11.113Z,8.57
2022-11-23T17:21:11.099Z,8.48
2022-11-23T17:22:11.092Z,8.54
2022-11-23T17:23:11.076Z,8.51
2022-11-23T17:24:11.080Z,8.50
2022-11-23T17:25:14.771Z,8.45
2022-11-23T17:26:11.058Z,8.48
2022-11-23T17:27:11.044Z,8.48
2022-11-23T17:28:11.024Z,8.50
2022-11-23T17:29:11.007Z,8.53
2022-11-23T17:30:11.082Z,8.58
2022-11-23T17:31:11.029Z,8.54
2022-11-23T17:32:10.977Z,8.51
2022-11-23T17:33:10.959Z,8.44
2022-11-23T17:34:10.954Z,8.48
2022-11-23T17:35:10.978Z,8.40
2022-11-23T17:36:10.931Z,8.35
2022-11-23T17:37:10.938Z,8.44
2022-11-23T17:38:10.923Z,8.45
2022-11-23T17:39:10.908Z,8.40
2022-11-23T17:40:10.900Z,8.48
2022-11-23T17:41:10.901Z,8.32
2022-11-23T17:42:10.864Z,8.47
2022-11-23T17:43:10.862Z,8.42
2022-11-23T17:44:10.853Z,8.33
2022-11-23T17:45:10.829Z,8.36
2022-11-23T17:46:10.918Z,8.40
2022-11-23T17:47:10.813Z,8.45
2022-11-23T17:48:10.808Z,8.47
2022-11-23T17:49:10.784Z,8.47
2022-11-23T17:50:10.802Z,8.45
2022-11-23T17:51:10.808Z,8.54
2022-11-23T17:52:10.763Z,8.47
2022-11-23T17:53:10.743Z,8.48
2022-11-23T17:54:10.727Z,8.42
2022-11-23T17:55:10.728Z,8.48
2022-11-23T17:56:10.715Z,8.47
2022-11-23T17:57:10.757Z,8.44
2022-11-23T17:58:10.693Z,8.48
2022-11-23T17:59:10.669Z,8.51
2022-11-23T18:00:10.664Z,8.45
2022-11-23T18:01:10.706Z,8.45
2022-11-23T18:02:10.651Z,8.45
2022-11-23T18:03:10.723Z,8.39
2022-11-23T18:04:10.626Z,8.42
2022-11-23T18:05:10.621Z,8.44
2022-11-23T18:06:10.603Z,8.44
2022-11-23T18:07:10.653Z,8.40
2022-11-23T18:08:10.594Z,8.44
2022-11-23T18:09:10.564Z,8.32
2022-11-23T18:10:10.560Z,8.30
2022-11-23T18:11:10.539Z,8.29
2022-11-23T18:12:10.540Z,8.28
2022-11-23T18:13:10.507Z,8.35
2022-11-23T18:14:10.530Z,8.35
2022-11-23T18:15:10.497Z,8.32
2022-11-23T18:16:10.583Z,8.30
2022-11-23T18:17:10.475Z,8.47
2022-11-23T18:18:10.500Z,8.36
2022-11-23T18:19:10.452Z,8.37
2022-11-23T18:20:10.459Z,8.33
2022-11-23T18:21:10.419Z,8.29
2022-11-23T18:22:10.416Z,8.40
2022-11-23T18:23:10.461Z,8.35
2022-11-23T18:24:10.422Z,8.39
2022-11-23T18:25:10.386Z,8.36
2022-11-23T18:26:10.363Z,8.32
2022-11-23T18:27:10.361Z,8.45
2022-11-23T18:28:10.351Z,8.42
2022-11-23T18:29:15.580Z,8.40
2022-11-23T18:30:11.333Z,8.37
2022-11-23T18:31:10.419Z,8.35
2022-11-23T18:32:10.295Z,8.30
2022-11-23T18:33:10.313Z,8.32
2022-11-23T18:34:10.282Z,8.28
2022-11-23T18:35:10.289Z,8.33
2022-11-23T18:36:10.266Z,8.36
2022-11-23T18:37:10.233Z,8.39
2022-11-23T18:38:10.225Z,8.28
2022-11-23T18:39:10.231Z,8.40
2022-11-23T18:40:10.206Z,8.44
2022-11-23T18:41:10.217Z,8.40
2022-11-23T18:42:10.195Z,8.37
2022-11-23T18:43:10.694Z,8.26
2022-11-23T18:44:10.157Z,8.35
2022-11-23T18:45:10.165Z,8.36
2022-11-23T18:46:10.312Z,8.37
2022-11-23T18:47:10.118Z,8.33
2022-11-23T18:48:10.123Z,8.39
2022-11-23T18:49:10.094Z,8.39
2022-11-23T18:50:10.745Z,8.32
2022-11-23T18:51:10.102Z,8.33
2022-11-23T18:52:10.080Z,8.32
2022-11-23T18:53:10.061Z,8.36
2022-11-23T18:54:10.048Z,8.33
2022-11-23T18:55:10.067Z,8.28
2022-11-23T18:56:10.050Z,8.47
2022-11-23T18:57:10.021Z,8.33
2022-11-23T18:58:10.016Z,8.33
2022-11-23T18:59:19.166Z,8.32
2022-11-23T19:00:10.979Z,8.32
2022-11-23T19:01:12.392Z,8.32
2022-11-23T19:02:10.017Z,8.32
2022-11-23T19:03:09.955Z,8.51
2022-11-23T19:04:10.101Z,8.28
2022-11-23T19:05:09.913Z,8.33
2022-11-23T19:06:09.922Z,8.20
2022-11-23T19:07:10.018Z,8.36
2022-11-23T19:08:09.896Z,8.20
2022-11-23T19:09:09.867Z,8.21
2022-11-23T19:10:09.876Z,8.32
2022-11-23T19:11:09.871Z,8.20
2022-11-23T19:12:09.864Z,8.18
2022-11-23T19:13:09.837Z,8.15
2022-11-23T19:14:09.830Z,8.26
2022-11-23T19:15:09.815Z,8.14
2022-11-23T19:16:09.892Z,8.17
2022-11-23T19:17:09.790Z,8.22
2022-11-23T19:18:09.987Z,8.12
2022-11-23T19:19:09.770Z,8.12
2022-11-23T19:20:09.774Z,8.20
2022-11-23T19:21:09.748Z,8.21
2022-11-23T19:22:09.755Z,8.15
2022-11-23T19:23:09.724Z,8.21
2022-11-23T19:24:09.715Z,8.20
2022-11-23T19:25:09.685Z,8.17
2022-11-23T19:26:09.697Z,8.15
2022-11-23T19:27:09.749Z,8.30
2022-11-23T19:28:09.670Z,8.18
2022-11-23T19:29:09.640Z,8.18
2022-11-23T19:30:09.639Z,8.26
2022-11-23T19:31:09.670Z,8.14
2022-11-23T19:32:09.640Z,8.10
2022-11-23T19:33:09.608Z,8.02
2022-11-23T19:34:09.605Z,8.17
2022-11-23T19:35:09.572Z,8.14
2022-11-23T19:36:09.569Z,8.08
2022-11-23T19:37:09.573Z,8.11
2022-11-23T19:38:09.544Z,8.15
2022-11-23T19:39:09.528Z,8.02
2022-11-23T19:40:09.537Z,7.94
2022-11-23T19:41:09.506Z,7.96
2022-11-23T19:42:09.508Z,7.90
2022-11-23T19:43:09.514Z,7.97
2022-11-23T19:44:09.481Z,8.02
2022-11-23T19:45:09.476Z,7.87
2022-11-23T19:46:09.543Z,7.94
2022-11-23T19:47:15.390Z,7.87
2022-11-23T19:48:10.425Z,7.90
2022-11-23T19:49:09.435Z,7.89
2022-11-23T19:50:09.414Z,7.97
2022-11-23T19:51:09.406Z,7.87
2022-11-23T19:52:09.377Z,7.79
2022-11-23T19:53:12.742Z,7.78
2022-11-23T19:54:09.356Z,7.87
2022-11-23T19:55:09.364Z,7.82
2022-11-23T19:56:09.347Z,7.85
2022-11-23T19:57:09.351Z,7.81
2022-11-23T19:58:09.324Z,7.84
2022-11-23T19:59:09.348Z,7.82
2022-11-23T20:00:09.307Z,7.78
2022-11-23T20:01:09.297Z,7.84
2022-11-23T20:02:09.348Z,7.82
2022-11-23T20:03:09.296Z,7.77
2022-11-23T20:04:10.141Z,7.81
2022-11-23T20:05:09.292Z,7.71
2022-11-23T20:06:09.221Z,7.77
2022-11-23T20:07:09.236Z,7.74
2022-11-23T20:08:09.200Z,7.62
2022-11-23T20:09:09.217Z,7.75
2022-11-23T20:10:09.174Z,7.81
2022-11-23T20:11:09.204Z,7.78
2022-11-23T20:12:09.166Z,7.66
2022-11-23T20:13:09.158Z,7.78
2022-11-23T20:14:09.167Z,7.82
2022-11-23T20:15:09.202Z,7.77
2022-11-23T20:16:09.171Z,7.72
2022-11-23T20:17:09.097Z,7.75
2022-11-23T20:18:09.096Z,7.67
2022-11-23T20:19:09.113Z,7.74
2022-11-23T20:20:09.073Z,7.60
2022-11-23T20:21:09.053Z,7.71
2022-11-23T20:22:09.037Z,7.60
2022-11-23T20:23:09.063Z,7.66
2022-11-23T20:24:09.027Z,7.59
2022-11-23T20:25:09.027Z,7.58
2022-11-23T20:26:09.010Z,7.60
2022-11-23T20:27:08.986Z,7.56
2022-11-23T20:28:08.986Z,7.52
2022-11-23T20:29:08.973Z,7.52
2022-11-23T20:30:08.965Z,7.47
2022-11-23T20:31:09.033Z,7.45
2022-11-23T20:32:08.942Z,7.49